Carl Junction, MO

10:48 AM CDT on October 31, 2014 (GMT -0500)
Joplin Regional | Change Station
CLOSE
Current Station
Airport
Location: Joplin,
Elevation: 981 ft
Nearby Weather Stations
Active Advisory: Freeze Warning Active Notice: Public Information Statement

Elev 981 ft 37.15 °N, 94.50 °W | Updated 55 minutes ago

Mostly Cloudy
Mostly Cloudy
42 °F
Feels Like 33 °F
N
20
Wind Variable Wind from North
Gusts 29 mph

Today
High -- | Low -- °F
--% Chance of Precip.
Yesterday
High -- | Low -- °F
Precip. -- in
7:41 AM 6:21 PM
First Quarter, 56% visible
Pressure 30.41 in
Visibility 10.0 miles
Clouds Mostly Cloudy 2400 ft
Windchill 33 °F
Dew Point 33 °F
Humidity 70%
Rainfall 0.00 in
Snow Depth Not available.
UV 1 out of 12
Pollen .80 out of 12
Air Quality Not available.
Flu Activity Not available.
METAR KJLN 311453Z 36017G25KT 10SM BKN024 06/01 A3040 RMK AO2 PK WND 36028/1440 SLP297 T00560006 53036 $

More Conditions Fewer Conditions

Pressure 30.41 in
Visibility 10.0 miles
Clouds Mostly Cloudy 2400 ft
Windchill 33 °F
Dew Point 33 °F
Humidity 70%
Rainfall 0.00 in
Snow Depth Not available.
UV 1 out of 12
Pollen .80 out of 12
Air Quality Not available.
Flu Activity Not available.
METAR KJLN 311453Z 36017G25KT 10SM BKN024 06/01 A3040 RMK AO2 PK WND 36028/1440 SLP297 T00560006 53036 $

More Conditions Fewer Conditions

10-Day Weather Forecast

Almanac

Astronomy

Oct. 31, 2014 Rise Set
Actual Time
Civil Twilight
Nautical Twilight
Astronomical Twilight
Moon
Length of Visible Light
Length of Day
Tomorrow will be .
, % of the Moon is Illuminated

Today's Extremes

State Highs State Lows

Community

WunderPhotos

Upload Photos

1,766,644 photos uploaded!

WunderBlogs® & News

Nearby

Air Quality

  Air Quality AQ Index Pollutant
Not available.

Snow Depth

Station Depth Elevation

Earthquake Activity

City Distance Mag. Time & Date
Minimum magnitude displayed is 2.5.

Coastal Water Temperatures

Place Temperature

Nearby Weather Stations